Starting Block 10K

Back to 2011 Road Races

2011 Road Race #1

2011-02-13, Lavington, 10.0 km
# Name City Age GP CP Time Pace
1 Jeff Symonds Penticton M20-29 0:32:22 03:14
2 Tom Michie Kelowna M20-29 0:34:47 03:28
3 Nathan Champness Vernon M20-29 0:35:27 03:32
4 Rory Switzer Kelowna M50-54 4 0:36:09 03:36
5 Brian Rostek Kamloops M40-44 5 0:36:23 03:38
6 Keddi-Anne Sherbino Kelowna F20-29 0:37:23 03:44
7 Gary Wade Kelowna M40-44 6 0:37:41 03:46
8 Gord Minaker West Kelowna M16-19 7 0:38:20 03:50
9 Eric Jewell Coldstream M30-34 8 0:39:16 03:55
10 Wade Carlson Penticton M20-29 9 4 0:39:24 03:56
11 Scott Mcmillan Penticton M35-39 10 0:39:47 03:58
12 Sarah Clark Vernon F40-44 0:40:09 04:00
13 Matthew Hidasi Vernon M16-19 11 0:40:28 04:02
14 Simon Craig Vernon M40-44 12 0:40:41 04:04
15 James Mundall Kamloops M20-29 13 5 0:40:42 04:04
16 Emmy Sim Salmon Arm F01-15 0:40:43 04:04
17 Randy Werger Kelowna M50-54 14 0:40:54 04:05
18 Tom Carlson Kelowna M50-54 15 0:41:20 04:08
19 Chris Willett Winfield M35-39 16 0:41:58 04:11
20 Jeff Cameron Kelowna M30-34 17 0:42:06 04:12
21 Darryl Brooker Kelowna M35-39 18 0:42:29 04:14
22 Jason Rodine Kelowna M30-34 19 0:42:37 04:15
23 Timothy Mundall Kamloops M20-29 20 6 0:42:53 04:17
24 Jordan Sim Kamloops M50-54 21 4 0:43:03 04:18
25 Bill Mah Vernon M55-59 22 0:43:14 04:19
26 Neil Rybak Kelowna M30-34 23 4 0:43:14 04:19
27 Greg Garner Vernon M30-34 24 5 0:43:32 04:21
28 Glynis Sim Salmon Arm F01-15 4 0:44:00 04:24
29 Rick Stone Vernon M40-44 25 4 0:44:03 04:24
30 Audrey Kilmartin Vernon F30-34 5 0:44:04 04:24
31 Jim Simms Vernon M45-49 26 0:44:23 04:26
32 Leo Rankin Williams Lake M60-64 27 0:44:36 04:27
33 Neil Macdonald Penticton M45-49 28 0:44:39 04:27
34 Richard Dueck Kelowna M40-44 29 5 0:44:46 04:28
35 Ian Robertson Kamloops M50-54 30 5 0:44:49 04:28
36 Angelo Comazzetto Coldstream M35-39 31 4 0:45:09 04:30
37 Michael Jodoin Vernon M40-44 32 6 0:45:16 04:31
38 Bob Annand Vernon M55-59 33 0:45:27 04:32
39 Bill Head Penticton M55-59 34 0:45:47 04:34
40 Wade Cantalope Vernon M40-44 35 7 0:46:02 04:36
41 Mike Braid Summerland M55-59 36 4 0:46:16 04:37
42 Shayne Wright Vernon M35-39 37 5 0:46:24 04:38
43 Ted Swan Vernon M20-29 38 7 0:46:29 04:38
44 Jenna Hunter Vernon F20-29 6 0:46:54 04:41
45 Christian Gignac Vernon M40-44 39 8 0:47:11 04:43
46 Graeme Corbet Vernon M35-39 40 6 0:47:17 04:43
47 John Arih Coldstream M45-49 41 0:47:25 04:44
48 Melvin Doherty Kamloops M60-64 42 0:47:29 04:44
49 Corrine Gable Kelowna F45-49 7 0:47:33 04:45
50 Kirbey Lockhart Coldstream M45-49 43 4 0:47:44 04:46
51 Marnie Kovacs Coldstream F35-39 8 0:47:45 04:46
52 Martin Kratky Kamloops M30-34 44 6 0:47:50 04:47
53 Amy Donley Vernon F30-34 9 0:47:53 04:47
54 Ray Crampton Vernon M45-49 45 5 0:48:01 04:48
55 Trent Dansereau Coldstream M45-49 46 6 0:48:04 04:48
56 Leah Rodgers Kelowna F20-29 10 0:48:10 04:49
57 Jeremy Frick Coldstream M30-34 47 7 0:48:13 04:49
58 Diane Vanderstar Lumby F55-59 11 0:48:22 04:50
59 Matt Vanderhorst Vernon M20-29 48 8 0:48:23 04:50
60 Bryce Turner Kamloops M01-15 49 0:48:26 04:50
61 Aidan Weber-Concannon Vernon M01-15 50 0:48:36 04:51
62 Dan Kunzelman Coldstream M45-49 51 7 0:48:40 04:52
63 Robin Cardew Vernon M35-39 52 7 0:48:50 04:53
64 Krista Boudreau Lillooet F20-29 12 4 0:48:58 04:53
65 Kenny Simms Vernon M35-39 53 8 0:49:04 04:54
66 Lynda Proce Coldstream F55-59 13 0:49:09 04:54
67 Carly Jewell Coldstream F30-34 14 0:49:10 04:55
68 Ken Hilverda Kelowna M35-39 54 9 0:49:12 04:55
69 Myranda Cowie Summerland F35-39 15 0:49:13 04:55
70 Meryn Sim Salmon Arm F16-19 16 0:49:22 04:56
71 Shane Stoddart Vernon M20-29 55 9 0:49:22 04:56
72 Carl Burgess Vernon M40-44 56 9 0:49:23 04:56
73 Jason Besse Kelowna M35-39 57 10 0:49:39 04:57
74 Don Hill Vernon M55-59 58 5 0:49:41 04:58
75 Michelle Sinclair Kelowna F40-44 17 0:49:52 04:59
76 Terryn Thachuk Vernon F30-34 18 4 0:49:54 04:59
77 Rebecca Stoddart Vernon F30-34 19 5 0:49:59 04:59
78 Chris Jodoin Vernon M30-34 59 8 0:50:00 05:00
79 Richard Bugera Kelowna M40-44 60 10 0:50:07 05:00
80 Luke Campbell Kelowna M35-39 61 11 0:50:09 05:00
81 Richard Sim Salmon Arm M55-59 62 6 0:50:09 05:00
82 Erica Moser-Reschreiter Vernon F40-44 20 0:50:11 05:01
83 Dave Langlois Coldstream M50-54 63 6 0:50:13 05:01
84 Steve King Penticton M60-64 64 0:50:47 05:04
85 Jill Wanklyn Kelowna F50-54 21 0:50:51 05:05
86 Ken Riegel Vernon M60-64 65 4 0:51:17 05:07
87 Kathryn Giorio Coldstream F40-44 22 4 0:51:22 05:08
88 Bev Steeves Vernon F40-44 23 5 0:51:26 05:08
89 Steen Bray Kamloops M35-39 66 12 0:51:27 05:08
90 Jennifer Spencer Kelowna F20-29 24 5 0:51:28 05:08
91 Shanda Hill Vernon F20-29 25 6 0:51:31 05:09
92 Deb Lougheed Penticton F45-49 26 0:51:34 05:09
93 Jordan Smeaton Kamloops M16-19 67 0:51:38 05:09
94 Janice Irwin Coldstream F60-64 27 0:51:50 05:11
95 Meggi Clarke Kelowna F20-29 28 7 0:51:54 05:11
96 Winston Pauline-Gall Lake Country M40-44 68 11 0:51:54 05:11
97 Darin Johaneson Vernon M40-44 69 12 0:51:56 05:11
98 Cathrine Beck Coldstream F40-44 29 6 0:51:58 05:11
99 Duane Seibel Kamloops M45-49 70 8 0:52:01 05:12
100 Alanna Simms Vernon F35-39 30 0:52:03 05:12
101 Diane Leonard Kelowna F65-69 31 0:52:04 05:12
102 Trish Marshall Coldstream F45-49 32 0:52:13 05:13
103 Desirae Martin Penticton F16-19 33 0:52:15 05:13
104 Kara Hoffman Vernon F35-39 34 4 0:52:16 05:13
105 Laurel Aikin Vernon F50-54 35 0:52:32 05:15
106 Joanna Wittke Penticton F20-29 36 8 0:52:43 05:16
107 Rolena Debruyn Kamloops F20-29 37 9 0:52:49 05:16
108 Carla Peters Vernon F45-49 38 4 0:52:57 05:17
109 Kathy Leahy Penticton F45-49 39 5 0:53:01 05:18
110 Lisa Spalding Penticton F45-49 40 6 0:53:06 05:18
111 James Reilly Lake Country M35-39 71 13 0:53:28 05:20
112 Alan Macleod Revelstoke M65-69 72 0:53:38 05:21
113 John Chisholm Vernon M55-59 73 7 0:53:41 05:22
114 Irena Mcdonald Coldstream F50-54 41 0:53:45 05:22
115 Janine Collinson Kelowna F40-44 42 7 0:53:48 05:22
116 Derek Lea Kelowna M40-44 74 13 0:53:55 05:23
117 Randi Delisimunovic Vernon F35-39 43 5 0:53:59 05:23
118 Shirley Gray Summerland F65-69 44 0:54:02 05:24
119 Bryson Zantingh Vernon M20-29 75 10 0:54:09 05:24
120 Shawn Baenziger Kelowna M65-69 76 0:54:18 05:25
121 Jessie Paustian Kamloops F20-29 45 10 0:54:25 05:26
122 Bill Stephens Kelowna M70-74 77 0:54:27 05:26
123 Avalon Richter Coldstream F35-39 46 6 0:54:29 05:26
124 Mike Reiley Coldstream M50-54 78 7 0:54:32 05:27
125 Marija Kozic Kaleden F55-59 47 0:54:33 05:27
126 Allyson Reich Vernon F35-39 48 7 0:54:47 05:28
127 Alan Clarke Penticton M55-59 79 8 0:54:48 05:28
128 Dana Hedges Kelowna F35-39 49 8 0:54:56 05:29
129 Chantal Farley Cherryville F20-29 50 11 0:54:58 05:29
130 Carol Davidson Vernon F40-44 51 8 0:55:08 05:30
131 Kim Young Coldstream M50-54 80 8 0:55:12 05:31
132 Jamie Tanner Kelowna M50-54 81 8 0:55:12 05:31
133 Amanda Hilverda Kelowna F35-39 52 9 0:55:27 05:32
134 Tanja Redelinghuys Vernon F35-39 53 10 0:55:30 05:33
135 Julie Hartland Coldstream F30-34 54 6 0:55:35 05:33
136 Chantelle Forseille Knutsford F20-29 55 12 0:55:38 05:33
137 Colleen Stensrude Vernon F50-54 56 4 0:55:39 05:33
138 Garry Bell Kelowna M65-69 82 0:55:39 05:33
139 Sherry Sim Kamloops F50-54 57 5 0:55:40 05:34
140 Susan Templin Summerland F60-64 58 0:55:47 05:34
141 Astrid Varga Kelowna F60-64 59 0:55:49 05:34
142 Jaki Meeks Vernon F40-44 60 9 0:55:51 05:35
143 Peter Francis Vernon M50-54 83 10 0:55:52 05:35
144 Simone Saeger West Kelowna F45-49 61 7 0:55:58 05:35
145 Henry Proce Coldstream M55-59 84 9 0:56:03 05:36
146 Dory Dueck Kelowna F45-49 62 8 0:56:13 05:37
147 Neva Low Vernon F55-59 63 4 0:56:15 05:37
148 Markus Heinrichs Kelowna M45-49 85 9 0:56:20 05:38
149 Bill Glover Vernon M65-69 86 4 0:56:20 05:38
150 Monique Powell Winfield F40-44 64 10 0:56:23 05:38
151 Wendy Otto Peachland F35-39 65 11 0:56:24 05:38
152 Al Aeckersberg Kelowna M50-54 87 11 0:56:32 05:39
153 Carrey Martin Penticton F45-49 66 9 0:56:35 05:39
154 Patrick Amundsen Summerland M55-59 88 10 0:56:40 05:40
155 Patricia Riegel Vernon F60-64 67 4 0:56:45 05:40
156 Ray Woodley Kamloops M45-49 89 10 0:56:47 05:40
157 Liz Borrett Kelowna F70-74 68 0:56:50 05:41
158 Dennis Boon Kelowna M65-69 90 5 0:56:54 05:41
159 Maria Mccomb Penticton F55-59 69 5 0:57:02 05:42
160 Sandra Wike Kelowna F55-59 70 6 0:57:05 05:42
161 Amanda Garner Coldstream F30-34 71 7 0:57:08 05:42
162 Charlotte Heidt Kelowna F55-59 72 7 0:57:08 05:42
163 Rory Bass Kelowna M45-49 91 11 0:57:20 05:44
164 Louis Stupar Kelowna M65-69 92 6 0:57:45 05:46
165 Adrienne Nice Kamloops F30-34 73 8 0:57:54 05:47
166 Dana Heinrichs Coldstream F30-34 74 9 0:58:01 05:48
167 Barb Van Hoof Vernon F50-54 75 6 0:58:02 05:48
168 Daniela Boebler Vernon F45-49 76 10 0:58:03 05:48
169 Laramie Shockey Vernon F40-44 77 11 0:58:04 05:48
170 Tamara Cunningham Kelowna F35-39 78 12 0:58:08 05:48
171 Melissa Holte Armstrong F20-29 79 13 0:58:27 05:50
172 Christine Pottle Okanagan Falls F45-49 80 11 0:58:28 05:50
173 Maria Doyle Coldstream F50-54 81 7 0:58:57 05:53
174 Darlene Wood Vernon F40-44 82 12 0:59:23 05:56
175 Bill Spill Kelowna M55-59 93 11 0:59:37 05:57
176 Ray Hermanson Lumby M65-69 94 7 0:59:45 05:58
177 Regina Black Kamloops F50-54 83 8 1:00:19 06:01
178 Sean Donley Vernon M35-39 95 14 1:00:20 06:02
179 Onna Stoll Vernon F45-49 84 12 1:00:33 06:03
180 Tom Reed Vernon M65-69 96 8 1:01:11 06:07
181 Erik Hayashi Kelowna M30-34 97 9 1:01:12 06:07
182 Arlen Maguire Vernon M40-44 98 14 1:01:21 06:08
183 Paul Wiebe Kelowna M40-44 99 15 1:01:57 06:11
184 Nell Elders Coldstream F40-44 85 13 1:02:05 06:12
185 Gary Fretenburg Sorrento M65-69 100 9 1:02:06 06:12
186 Claire Parker Kamloops F50-54 86 9 1:02:30 06:15
187 Roger Turner Kamloops M40-44 101 16 1:02:44 06:16
188 Nicole Leahy Penticton F20-29 87 14 1:03:11 06:19
189 Gail Kipp Kamloops F55-59 88 8 1:03:19 06:19
190 Lara Darke Kelowna F40-44 89 14 1:04:48 06:28
191 Lorne Forseille Knutsford M45-49 102 12 1:04:56 06:29
192 Joan Mclellan Kelowna F55-59 90 9 1:06:00 06:36
193 Karen Willies Kamloops F65-69 91 1:06:00 06:36
194 Andrew Smith Kelowna M45-49 103 13 1:06:03 06:36
195 Heather Comazzetto Coldstream F30-34 92 10 1:06:05 06:36
196 Karen Brown Coldstream F50-54 93 10 1:06:20 06:38
197 Linda Woodbury Kamloops F65-69 94 4 1:06:24 06:38
198 Donna Macleod Revelstoke F60-64 95 5 1:06:31 06:39
199 Kathryne Flannery Kamloops F55-59 96 10 1:06:58 06:41
200 Laurie Williams Armstrong F55-59 97 11 1:07:04 06:42
201 Kathleen Yanke Salmon Arm F65-69 98 5 1:07:22 06:44
202 Carol Chisholm Vernon F55-59 99 12 1:07:22 06:44
203 Linda Conrad Vernon F55-59 100 13 1:07:32 06:45
204 Wayne Pehowich Kamloops M60-64 104 5 1:08:01 06:48
205 Jeremy Siddall Vernon M40-44 105 17 1:08:12 06:49
206 Camille Steele Vernon F30-34 101 11 1:10:33 07:03
207 Donna Steele Vernon F30-34 102 12 1:10:54 07:05
208 Susan Falkenholt Vernon F45-49 103 13 1:11:07 07:06
209 Charlotte Kushner Kelowna F55-59 104 14 1:11:44 07:10
210 Kim Froom Kelowna F50-54 105 11 1:11:48 07:10
211 Fae Shaw Kelowna F50-54 106 12 1:12:10 07:13
212 Heidi Thiessen Vernon F20-29 107 15 1:13:13 07:19
213 Allison Fulton Kamloops F60-64 108 6 1:13:19 07:19
214 Dawn Fylyshtan Kelowna F30-34 109 13 1:16:36 07:39
215 Kari Fargo Kelowna F30-34 110 14 1:16:37 07:39
216 Doug Hurd Penticton M65-69 106 10 1:17:17 07:43
217 Lisa Fennell Kelowna F35-39 111 13 1:24:37 08:27
Missing or Incorrect Results